createdAt,value
2022-09-27T00:01:24.873Z,98254.03
2022-09-27T00:03:55.619Z,98252.22
2022-09-27T00:06:28.141Z,98245.94
2022-09-27T00:08:56.092Z,98246.88
2022-09-27T00:11:44.283Z,98243.78
2022-09-27T00:14:13.523Z,98237.13
2022-09-27T00:16:43.370Z,98224.97
2022-09-27T00:19:17.039Z,98227.53
2022-09-27T00:21:48.152Z,98220.53
2022-09-27T00:24:17.996Z,98217.00
2022-09-27T00:26:50.724Z,98219.78
2022-09-27T00:29:21.710Z,98209.81
2022-09-27T00:31:48.831Z,98212.56
2022-09-27T00:34:22.967Z,98201.47
2022-09-27T00:36:51.530Z,98201.06
2022-09-27T00:39:19.070Z,98204.56
2022-09-27T00:41:46.137Z,98196.81
2022-09-27T00:44:25.629Z,98191.84
2022-09-27T00:47:10.948Z,98192.19
2022-09-27T00:49:45.024Z,98179.81
2022-09-27T00:52:15.987Z,98183.88
2022-09-27T00:54:46.327Z,98174.81
2022-09-27T00:57:13.297Z,98173.56
2022-09-27T00:59:52.141Z,98173.91
2022-09-27T01:02:19.687Z,98169.88
2022-09-27T01:04:47.868Z,98168.06
2022-09-27T01:07:19.344Z,98162.91
2022-09-27T01:09:46.776Z,98165.53
2022-09-27T01:12:39.214Z,98162.03
2022-09-27T01:15:20.921Z,98154.47
2022-09-27T01:18:15.574Z,98140.44
2022-09-27T01:21:06.163Z,98145.97
2022-09-27T01:24:01.228Z,98139.00
2022-09-27T01:26:43.048Z,98136.38
2022-09-27T01:29:20.237Z,98134.16
2022-09-27T01:31:59.568Z,98128.03
2022-09-27T01:34:44.353Z,98122.72
2022-09-27T01:37:17.429Z,98119.94
2022-09-27T01:40:07.293Z,98124.03
2022-09-27T01:43:24.157Z,98114.47
2022-09-27T01:46:11.054Z,98107.66
2022-09-27T01:49:02.858Z,98096.22
2022-09-27T01:51:35.580Z,98103.25
2022-09-27T01:54:09.965Z,98100.28
2022-09-27T01:57:00.368Z,98099.53
2022-09-27T01:59:47.822Z,98102.69
2022-09-27T02:02:46.132Z,98097.91
2022-09-27T02:05:46.195Z,98091.81
2022-09-27T02:09:03.089Z,98082.59
2022-09-27T02:11:58.022Z,98085.16
2022-09-27T02:14:32.121Z,98087.91
2022-09-27T02:17:39.375Z,98080.91
2022-09-27T02:20:24.103Z,98085.16
2022-09-27T02:23:02.936Z,98091.06
2022-09-27T02:25:32.881Z,98084.38
2022-09-27T02:28:29.727Z,98082.19
2022-09-27T02:30:57.904Z,98084.75
2022-09-27T02:33:37.409Z,98082.31
2022-09-27T02:36:05.220Z,98079.16
2022-09-27T02:38:33.303Z,98085.06
2022-09-27T02:41:02.820Z,98083.22
2022-09-27T02:43:33.213Z,98074.53
2022-09-27T02:46:11.099Z,98073.22
2022-09-27T02:49:09.774Z,98077.28
2022-09-27T02:51:52.581Z,98072.09
2022-09-27T02:54:31.402Z,98067.84
2022-09-27T02:57:22.728Z,98070.44
2022-09-27T03:00:14.188Z,98067.72
2022-09-27T03:03:17.624Z,98066.28
2022-09-27T03:06:07.357Z,98069.81
2022-09-27T03:08:34.599Z,98070.00
2022-09-27T03:11:04.687Z,98069.66
2022-09-27T03:13:31.860Z,98070.75
2022-09-27T03:16:01.770Z,98070.75
2022-09-27T03:18:47.766Z,98065.44
2022-09-27T03:21:33.035Z,98054.19
2022-09-27T03:23:59.905Z,98061.56
2022-09-27T03:26:30.959Z,98057.91
2022-09-27T03:29:00.502Z,98059.94
2022-09-27T03:31:31.268Z,98056.41
2022-09-27T03:34:17.139Z,98049.78
2022-09-27T03:36:44.146Z,98042.91
2022-09-27T03:39:11.345Z,98031.47
2022-09-27T03:41:38.581Z,98023.50
2022-09-27T03:44:05.615Z,98022.38
2022-09-27T03:46:32.816Z,98022.91
2022-09-27T03:49:00.134Z,98018.25
2022-09-27T03:51:27.628Z,98016.06
2022-09-27T03:53:54.551Z,98011.47
2022-09-27T03:56:21.737Z,98017.41
2022-09-27T03:58:50.940Z,98009.28
2022-09-27T04:01:21.269Z,98012.81
2022-09-27T04:03:56.103Z,98001.56
2022-09-27T04:06:30.127Z,97998.78
2022-09-27T04:08:59.996Z,97994.00
2022-09-27T04:11:40.877Z,97987.72
2022-09-27T04:14:09.084Z,97987.00
2022-09-27T04:16:46.579Z,97987.91
2022-09-27T04:19:33.178Z,97981.66
2022-09-27T04:22:08.300Z,97981.78
2022-09-27T04:24:35.433Z,97983.28
2022-09-27T04:27:22.857Z,97989.75
2022-09-27T04:29:52.372Z,97992.13
2022-09-27T04:32:48.511Z,97985.66
2022-09-27T04:36:05.820Z,97987.66
2022-09-27T04:38:35.145Z,97988.53
2022-09-27T04:41:02.479Z,97987.41
2022-09-27T04:43:35.736Z,97982.78
2022-09-27T04:46:04.881Z,97982.78
2022-09-27T04:48:34.483Z,97984.44
2022-09-27T04:51:02.964Z,97982.41
2022-09-27T04:53:31.061Z,97989.41
2022-09-27T04:56:02.875Z,97990.13
2022-09-27T04:58:30.042Z,97990.50
2022-09-27T05:01:01.874Z,97979.41
2022-09-27T05:03:47.692Z,97990.81
2022-09-27T05:06:18.556Z,97982.69
2022-09-27T05:08:45.769Z,97982.28
2022-09-27T05:11:25.329Z,97981.56
2022-09-27T05:14:27.663Z,97972.88
2022-09-27T05:17:08.737Z,97971.91
2022-09-27T05:20:10.693Z,97977.06
2022-09-27T05:22:43.096Z,97971.81
2022-09-27T05:25:10.898Z,97967.94
2022-09-27T05:27:41.081Z,97964.03
2022-09-27T05:30:08.478Z,97954.75
2022-09-27T05:32:49.358Z,97953.94
2022-09-27T05:35:36.093Z,97940.03
2022-09-27T05:38:03.795Z,97940.53
2022-09-27T05:40:41.244Z,97941.75
2022-09-27T05:43:10.243Z,97941.09
2022-09-27T05:45:37.398Z,97936.94
2022-09-27T05:48:06.099Z,97934.69
2022-09-27T05:50:37.755Z,97937.50
2022-09-27T05:53:07.463Z,97935.41
2022-09-27T05:55:35.014Z,97937.53
2022-09-27T05:58:04.688Z,97935.38
2022-09-27T06:00:46.539Z,97937.34
2022-09-27T06:03:47.358Z,97932.75
2022-09-27T06:06:42.960Z,97937.00
2022-09-27T06:09:12.074Z,97943.03
2022-09-27T06:11:41.857Z,97935.75
2022-09-27T06:14:13.999Z,97938.09
2022-09-27T06:17:07.103Z,97945.38
2022-09-27T06:19:36.647Z,97935.66
2022-09-27T06:22:04.562Z,97943.41
2022-09-27T06:24:48.979Z,97941.19
2022-09-27T06:27:21.037Z,97941.69
2022-09-27T06:30:06.424Z,97938.34
2022-09-27T06:32:48.168Z,97931.78
2022-09-27T06:35:27.734Z,97929.31
2022-09-27T06:37:55.878Z,97931.81
2022-09-27T06:40:27.332Z,97934.81
2022-09-27T06:43:13.664Z,97936.88
2022-09-27T06:46:06.659Z,97939.00
2022-09-27T06:48:56.901Z,97938.16
2022-09-27T06:51:24.244Z,97937.19
2022-09-27T06:53:51.207Z,97948.19
2022-09-27T06:56:19.179Z,97942.50
2022-09-27T06:59:09.833Z,97939.72
2022-09-27T07:01:43.710Z,97939.09
2022-09-27T07:04:23.073Z,97940.56
2022-09-27T07:07:10.796Z,97947.88
2022-09-27T07:09:40.308Z,97947.56
2022-09-27T07:12:07.925Z,97952.09
2022-09-27T07:14:36.066Z,97945.78
2022-09-27T07:17:04.673Z,97945.06
2022-09-27T07:19:41.218Z,97954.28
2022-09-27T07:22:09.327Z,97955.56
2022-09-27T07:24:36.703Z,97957.47
2022-09-27T07:27:06.368Z,97957.78
2022-09-27T07:29:33.866Z,97960.88
2022-09-27T07:32:01.499Z,97953.25
2022-09-27T07:34:33.779Z,97962.91
2022-09-27T07:37:03.488Z,97960.59
2022-09-27T07:39:32.417Z,97973.16
2022-09-27T07:42:02.542Z,97978.72
2022-09-27T07:44:32.855Z,97973.44
2022-09-27T07:47:25.299Z,97972.28
2022-09-27T07:50:10.745Z,97980.63
2022-09-27T07:52:59.592Z,97977.28
2022-09-27T07:55:35.144Z,97983.28
2022-09-27T07:58:11.410Z,97984.75
2022-09-27T08:00:41.077Z,97987.84
2022-09-27T08:03:15.443Z,97989.00
2022-09-27T08:05:44.482Z,97991.06
2022-09-27T08:08:11.898Z,97998.66
2022-09-27T08:10:44.247Z,97996.75
2022-09-27T08:13:13.065Z,98004.16
2022-09-27T08:15:40.979Z,98005.44
2022-09-27T08:18:10.579Z,98001.88
2022-09-27T08:21:12.232Z,98012.63
2022-09-27T08:23:50.196Z,98017.72
2022-09-27T08:26:28.979Z,98023.47
2022-09-27T08:29:25.131Z,98018.75
2022-09-27T08:31:55.294Z,98017.28
2022-09-27T08:34:23.893Z,98016.09
2022-09-27T08:36:50.898Z,98026.44
2022-09-27T08:39:18.360Z,98019.91
2022-09-27T08:41:50.161Z,98018.19
2022-09-27T08:44:34.676Z,98023.34
2022-09-27T08:47:58.142Z,98019.22
2022-09-27T08:50:27.314Z,98017.91
2022-09-27T08:53:06.455Z,98022.63
2022-09-27T08:55:42.002Z,98014.25
2022-09-27T08:58:21.572Z,98006.38
2022-09-27T09:00:55.521Z,98011.84
2022-09-27T09:03:28.430Z,98012.75
2022-09-27T09:06:20.594Z,98014.47
2022-09-27T09:08:56.825Z,98012.59
2022-09-27T09:11:59.504Z,98007.03
2022-09-27T09:15:02.250Z,98007.63
2022-09-27T09:17:42.301Z,98006.91
2022-09-27T09:20:40.460Z,98012.16
2022-09-27T09:23:36.886Z,98015.25
2022-09-27T09:26:21.751Z,98014.69
2022-09-27T09:29:29.528Z,98021.13
2022-09-27T09:32:15.957Z,98025.50
2022-09-27T09:34:49.461Z,98035.78
2022-09-27T09:37:28.758Z,98026.41
2022-09-27T09:40:15.005Z,98033.97
2022-09-27T09:42:55.515Z,98022.78
2022-09-27T09:45:31.011Z,98014.47
2022-09-27T09:48:17.251Z,98024.13
2022-09-27T09:50:55.663Z,98021.38
2022-09-27T09:53:44.413Z,98020.25
2022-09-27T09:56:23.645Z,98014.88
2022-09-27T09:59:00.629Z,98019.44
2022-09-27T10:01:37.913Z,98017.44
2022-09-27T10:04:05.271Z,98010.31
2022-09-27T10:06:32.666Z,98012.53
2022-09-27T10:09:02.147Z,98016.88
2022-09-27T10:11:44.582Z,97999.31
2022-09-27T10:14:28.795Z,97998.63
2022-09-27T10:17:08.364Z,98004.63
2022-09-27T10:19:38.659Z,98009.94
2022-09-27T10:22:25.186Z,97994.09
2022-09-27T10:25:02.539Z,97998.34
2022-09-27T10:27:54.706Z,98009.44
2022-09-27T10:30:34.035Z,98014.56
2022-09-27T10:33:20.737Z,98006.44
2022-09-27T10:35:53.603Z,98009.97
2022-09-27T10:38:30.164Z,98005.84
2022-09-27T10:41:39.507Z,98003.66
2022-09-27T10:44:20.662Z,98015.72
2022-09-27T10:46:54.461Z,98013.88
2022-09-27T10:49:42.945Z,98012.03
2022-09-27T10:52:24.896Z,97998.59
2022-09-27T10:55:19.214Z,98012.78
2022-09-27T10:57:52.879Z,98005.00
2022-09-27T11:00:35.123Z,98009.19
2022-09-27T11:03:07.351Z,98008.22
2022-09-27T11:05:39.608Z,98015.69
2022-09-27T11:08:18.953Z,98013.94
2022-09-27T11:11:15.069Z,98007.09
2022-09-27T11:14:00.240Z,98005.25
2022-09-27T11:16:35.102Z,98000.75
2022-09-27T11:19:19.109Z,98002.25
2022-09-27T11:21:55.273Z,98003.03
2022-09-27T11:24:31.362Z,97991.84
2022-09-27T11:27:10.250Z,97987.81
2022-09-27T11:29:50.759Z,97986.72
2022-09-27T11:33:08.421Z,97991.19
2022-09-27T11:36:30.430Z,97984.44
2022-09-27T11:39:14.149Z,97990.00
2022-09-27T11:41:55.576Z,97989.00
2022-09-27T11:45:07.767Z,97974.63
2022-09-27T11:47:47.592Z,97987.13
2022-09-27T11:50:26.839Z,97988.63
2022-09-27T11:53:15.393Z,97992.72
2022-09-27T11:56:02.148Z,97997.25
2022-09-27T11:58:36.717Z,97996.78
2022-09-27T12:01:39.324Z,97987.72
2022-09-27T12:04:09.353Z,97988.28
2022-09-27T12:06:54.935Z,97988.50
2022-09-27T12:09:28.373Z,97980.44
2022-09-27T12:12:11.073Z,97977.78
2022-09-27T12:14:43.766Z,97972.81
2022-09-27T12:17:26.538Z,97983.47
2022-09-27T12:19:59.262Z,97974.00
2022-09-27T12:23:01.168Z,97988.44
2022-09-27T12:25:57.222Z,97991.94
2022-09-27T12:28:55.552Z,97988.47
2022-09-27T12:31:33.662Z,97997.47
2022-09-27T12:34:15.139Z,97991.75
2022-09-27T12:37:08.184Z,97992.91
2022-09-27T12:39:57.548Z,97991.91
2022-09-27T12:42:38.824Z,97987.72
2022-09-27T12:45:16.727Z,97984.88
2022-09-27T12:48:00.864Z,97980.34
2022-09-27T12:50:44.932Z,97986.72
2022-09-27T12:53:14.859Z,97999.63
2022-09-27T12:56:01.224Z,98000.91
2022-09-27T12:58:55.803Z,97990.06
2022-09-27T13:01:42.685Z,97989.84
2022-09-27T13:04:16.004Z,97992.63
2022-09-27T13:06:57.095Z,97989.84
2022-09-27T13:10:05.260Z,97989.09
2022-09-27T13:12:34.709Z,97994.00
2022-09-27T13:15:04.903Z,97996.78
2022-09-27T13:17:48.782Z,97999.72
2022-09-27T13:20:55.744Z,97995.22
2022-09-27T13:23:55.247Z,97998.00
2022-09-27T13:26:44.536Z,98002.56
2022-09-27T13:29:26.356Z,98004.91
2022-09-27T13:31:54.528Z,98005.22
2022-09-27T13:34:50.675Z,98010.94
2022-09-27T13:37:48.502Z,98004.63
2022-09-27T13:40:32.163Z,98016.81
2022-09-27T13:43:35.924Z,98016.06
2022-09-27T13:46:20.641Z,98022.50
2022-09-27T13:48:52.541Z,98017.09
2022-09-27T13:51:47.942Z,98023.41
2022-09-27T13:54:34.087Z,98016.94
2022-09-27T13:57:06.609Z,98012.97
2022-09-27T13:59:50.430Z,98011.81
2022-09-27T14:02:50.385Z,98020.59
2022-09-27T14:05:23.268Z,98019.41
2022-09-27T14:07:52.130Z,98018.25
2022-09-27T14:10:23.317Z,98016.50
2022-09-27T14:12:53.504Z,98019.59
2022-09-27T14:15:30.077Z,98021.03
2022-09-27T14:17:59.581Z,98025.72
2022-09-27T14:20:40.762Z,98026.19
2022-09-27T14:23:28.892Z,98032.19
2022-09-27T14:25:57.923Z,98037.75
2022-09-27T14:28:29.143Z,98035.84
2022-09-27T14:31:23.910Z,98042.00
2022-09-27T14:34:14.828Z,98039.22
2022-09-27T14:37:07.500Z,98050.09
2022-09-27T14:39:58.510Z,98048.34
2022-09-27T14:42:37.420Z,98049.19
2022-09-27T14:45:38.723Z,98054.19
2022-09-27T14:48:40.169Z,98049.94
2022-09-27T14:51:14.290Z,98050.66
2022-09-27T14:53:46.807Z,98060.31
2022-09-27T14:56:22.727Z,98054.31
2022-09-27T14:58:58.800Z,98055.28
2022-09-27T15:01:25.966Z,98054.25
2022-09-27T15:03:53.918Z,98052.22
2022-09-27T15:06:21.573Z,98050.47
2022-09-27T15:08:50.383Z,98060.53
2022-09-27T15:11:19.544Z,98061.38
2022-09-27T15:13:52.651Z,98064.34
2022-09-27T15:16:23.443Z,98062.28
2022-09-27T15:19:03.785Z,98051.88
2022-09-27T15:21:34.215Z,98054.66
2022-09-27T15:24:02.848Z,98058.16
2022-09-27T15:26:44.393Z,98057.84
2022-09-27T15:29:27.168Z,98057.38
2022-09-27T15:32:03.582Z,98066.78
2022-09-27T15:34:34.723Z,98064.25
2022-09-27T15:37:06.438Z,98066.28
2022-09-27T15:39:39.325Z,98071.56
2022-09-27T15:42:17.582Z,98069.06
2022-09-27T15:44:58.323Z,98074.06
2022-09-27T15:47:40.358Z,98082.56
2022-09-27T15:50:16.710Z,98087.13
2022-09-27T15:52:50.823Z,98080.84
2022-09-27T15:55:25.368Z,98087.88
2022-09-27T15:58:20.505Z,98106.59
2022-09-27T16:00:56.103Z,98099.56
2022-09-27T16:03:29.787Z,98097.78
2022-09-27T16:05:59.873Z,98098.94
2022-09-27T16:08:30.968Z,98093.78
2022-09-27T16:10:59.770Z,98099.19
2022-09-27T16:13:32.525Z,98092.72
2022-09-27T16:16:04.894Z,98102.66
2022-09-27T16:18:34.992Z,98108.47
2022-09-27T16:21:02.658Z,98104.41
2022-09-27T16:23:29.957Z,98105.88
2022-09-27T16:25:57.064Z,98108.81
2022-09-27T16:28:24.333Z,98107.31
2022-09-27T16:30:51.669Z,98112.44
2022-09-27T16:33:21.503Z,98121.75
2022-09-27T16:35:50.313Z,98122.81
2022-09-27T16:38:22.046Z,98134.81
2022-09-27T16:40:53.613Z,98133.19
2022-09-27T16:43:21.839Z,98139.31
2022-09-27T16:45:51.431Z,98137.28
2022-09-27T16:48:18.659Z,98140.06
2022-09-27T16:51:04.284Z,98140.81
2022-09-27T16:53:31.808Z,98139.59
2022-09-27T16:56:03.901Z,98142.94
2022-09-27T16:58:31.106Z,98147.63
2022-09-27T17:01:01.038Z,98155.94
2022-09-27T17:03:28.768Z,98144.34
2022-09-27T17:06:01.752Z,98150.72
2022-09-27T17:08:28.965Z,98158.34
2022-09-27T17:10:57.085Z,98154.50
2022-09-27T17:13:24.222Z,98160.06
2022-09-27T17:15:51.757Z,98153.28
2022-09-27T17:18:22.382Z,98157.13
2022-09-27T17:20:49.337Z,98163.00
2022-09-27T17:23:17.544Z,98159.75
2022-09-27T17:25:44.840Z,98160.88
2022-09-27T17:28:12.053Z,98161.47
2022-09-27T17:30:43.512Z,98164.81
2022-09-27T17:33:10.564Z,98168.16
2022-09-27T17:35:38.427Z,98171.03
2022-09-27T17:38:08.790Z,98148.81
2022-09-27T17:40:35.875Z,98148.63
2022-09-27T17:43:04.179Z,98149.22
2022-09-27T17:45:31.282Z,98149.94
2022-09-27T17:48:17.335Z,98148.88
2022-09-27T17:50:48.089Z,98146.66
2022-09-27T17:53:15.091Z,98158.75
2022-09-27T17:55:42.686Z,98163.41
2022-09-27T17:58:12.286Z,98168.47
2022-09-27T18:00:39.776Z,98175.31
2022-09-27T18:03:09.929Z,98177.94
2022-09-27T18:05:38.382Z,98180.38
2022-09-27T18:08:05.598Z,98193.03
2022-09-27T18:10:33.653Z,98195.81
2022-09-27T18:13:05.762Z,98200.78
2022-09-27T18:15:33.040Z,98188.34
2022-09-27T18:18:01.012Z,98187.66
2022-09-27T18:20:29.502Z,98181.41
2022-09-27T18:22:56.852Z,98191.63
2022-09-27T18:25:28.159Z,98202.47
2022-09-27T18:27:56.369Z,98205.41
2022-09-27T18:30:23.675Z,98210.78
2022-09-27T18:35:36.202Z,98216.34
2022-09-27T18:38:03.510Z,98213.56
2022-09-27T18:40:51.951Z,98218.97
2022-09-27T18:43:18.524Z,98221.19
2022-09-27T18:45:46.017Z,98226.56
2022-09-27T18:48:14.303Z,98220.69
2022-09-27T18:50:42.180Z,98219.59
2022-09-27T18:53:09.457Z,98234.78
2022-09-27T18:55:38.652Z,98241.81
2022-09-27T18:58:09.057Z,98242.38
2022-09-27T19:00:38.749Z,98239.06
2022-09-27T19:03:06.434Z,98238.19
2022-09-27T19:05:33.583Z,98241.16
2022-09-27T19:08:00.929Z,98248.25
2022-09-27T19:10:28.802Z,98253.47
2022-09-27T19:12:58.718Z,98249.84
2022-09-27T19:15:26.220Z,98250.97
2022-09-27T19:17:53.900Z,98252.81
2022-09-27T19:20:23.873Z,98245.03
2022-09-27T19:22:51.189Z,98249.84
2022-09-27T19:25:18.504Z,98247.09
2022-09-27T19:27:46.058Z,98248.00
2022-09-27T19:30:14.093Z,98257.84
2022-09-27T19:32:42.010Z,98255.28
2022-09-27T19:35:12.537Z,98241.81
2022-09-27T19:37:40.623Z,98245.75
2022-09-27T19:40:08.547Z,98250.03
2022-09-27T19:42:36.052Z,98248.41
2022-09-27T19:45:05.797Z,98249.00
2022-09-27T19:47:39.609Z,98247.72
2022-09-27T19:50:07.891Z,98243.50
2022-09-27T19:52:35.688Z,98249.41
2022-09-27T19:55:06.808Z,98237.56
2022-09-27T19:57:33.929Z,98243.66
2022-09-27T20:00:03.542Z,98246.63
2022-09-27T20:02:32.328Z,98250.31
2022-09-27T20:04:59.439Z,98254.19
2022-09-27T20:07:27.230Z,98251.41
2022-09-27T20:09:54.727Z,98245.88
2022-09-27T20:12:23.944Z,98250.13
2022-09-27T20:14:51.230Z,98246.78
2022-09-27T20:17:18.407Z,98248.28
2022-09-27T20:19:45.908Z,98247.91
2022-09-27T20:22:13.306Z,98242.53
2022-09-27T20:24:40.478Z,98242.13
2022-09-27T20:27:10.561Z,98242.31
2022-09-27T20:29:37.768Z,98243.41
2022-09-27T20:35:00.222Z,98240.97
2022-09-27T20:37:27.674Z,98244.06
2022-09-27T20:39:54.812Z,98244.78
2022-09-27T20:42:22.787Z,98244.22
2022-09-27T20:44:54.102Z,98239.19
2022-09-27T20:47:22.619Z,98241.00
2022-09-27T20:49:50.404Z,98240.22
2022-09-27T20:52:19.881Z,98240.00
2022-09-27T20:54:49.423Z,98230.94
2022-09-27T20:57:16.736Z,98232.34
2022-09-27T20:59:43.885Z,98232.81
2022-09-27T21:02:11.196Z,98235.00
2022-09-27T21:04:38.609Z,98237.16
2022-09-27T21:07:08.184Z,98232.44
2022-09-27T21:09:37.492Z,98233.16
2022-09-27T21:12:04.726Z,98239.31
2022-09-27T21:14:31.720Z,98240.44
2022-09-27T21:17:03.443Z,98234.63
2022-09-27T21:19:30.900Z,98248.81
2022-09-27T21:21:57.876Z,98256.72
2022-09-27T21:24:24.954Z,98255.25
2022-09-27T21:26:53.392Z,98264.59
2022-09-27T21:29:21.406Z,98256.31
2022-09-27T21:31:48.433Z,98254.50
2022-09-27T21:34:16.565Z,98249.13
2022-09-27T21:36:43.830Z,98246.81
2022-09-27T21:39:11.019Z,98239.97
2022-09-27T21:41:39.257Z,98238.53
2022-09-27T21:44:07.517Z,98236.25
2022-09-27T21:46:34.840Z,98244.31
2022-09-27T21:49:02.266Z,98243.78
2022-09-27T21:51:33.035Z,98253.16
2022-09-27T21:54:06.033Z,98255.28
2022-09-27T21:56:35.855Z,98262.66
2022-09-27T21:59:04.384Z,98262.59
2022-09-27T22:01:33.488Z,98265.16
2022-09-27T22:04:02.314Z,98285.91
2022-09-27T22:06:31.996Z,98271.56
2022-09-27T22:09:01.591Z,98275.13
2022-09-27T22:11:35.310Z,98288.91
2022-09-27T22:14:02.490Z,98283.34
2022-09-27T22:16:30.414Z,98274.03
2022-09-27T22:18:58.712Z,98281.19
2022-09-27T22:21:37.591Z,98276.41
2022-09-27T22:24:08.365Z,98268.69
2022-09-27T22:26:41.270Z,98265.38
2022-09-27T22:29:09.230Z,98266.13
2022-09-27T22:31:37.212Z,98268.97
2022-09-27T22:34:06.665Z,98265.09
2022-09-27T22:36:34.945Z,98269.47
2022-09-27T22:39:02.766Z,98272.28
2022-09-27T22:41:32.273Z,98264.38
2022-09-27T22:43:59.460Z,98264.94
2022-09-27T22:46:27.006Z,98271.84
2022-09-27T22:48:55.790Z,98268.94
2022-09-27T22:51:23.007Z,98271.50
2022-09-27T22:53:50.026Z,98292.16
2022-09-27T22:56:21.767Z,98285.91
2022-09-27T22:58:50.067Z,98284.06
2022-09-27T23:01:24.939Z,98284.97
2022-09-27T23:03:57.321Z,98297.34
2022-09-27T23:06:24.345Z,98288.13
2022-09-27T23:08:51.743Z,98296.59
2022-09-27T23:11:21.370Z,98300.47
2022-09-27T23:13:51.327Z,98297.31
2022-09-27T23:16:25.321Z,98299.38
2022-09-27T23:18:54.586Z,98291.81
2022-09-27T23:21:24.695Z,98284.22
2022-09-27T23:23:56.126Z,98287.00
2022-09-27T23:26:28.315Z,98292.88
2022-09-27T23:28:57.715Z,98292.88
2022-09-27T23:31:29.726Z,98290.03
2022-09-27T23:33:58.698Z,98284.47
2022-09-27T23:36:27.609Z,98289.97
2022-09-27T23:38:58.497Z,98281.25
2022-09-27T23:41:26.107Z,98280.09
2022-09-27T23:43:55.293Z,98281.47
2022-09-27T23:46:22.618Z,98277.94
2022-09-27T23:48:49.684Z,98276.25
2022-09-27T23:51:16.725Z,98282.44
2022-09-27T23:53:46.262Z,98277.97
2022-09-27T23:56:17.608Z,98268.69
2022-09-27T23:58:46.113Z,98272.69
